Accueil
METAR-TAF:

METAR-TAF

Aéroports :

Aéroport international d'Exeter

Exeter, Angleterre

latitude: 50-44N, longitude: 003-25W, altitude: 30 m

Observation

Le bulletin a été fait il y a 35 minutes, à 07:50 UTC
Vent 2 kt de sud/sud-ouest
Température 3°C
Humidité 93%
Pression 1016 hPa
Visibilité 10 km ou plus
pas de nuages en-dessous de 1500 mètres et pas de cumulonimbus.

METAR: EGTE 170750Z 21002KT CAVOK 03/02 Q1016

Heure: 08:25 (08:25 UTC)

Prévision

Le bulletin a été fait il y a 2 heures et 0 minutes, à 06:25 UTC
Prévision valable du 17 à 06 UTC au 17 à 15 UTC
Vent 4 kt de sud
Visibilité 10 km ou plus
Quelques nuages à une hauteur de 4500 ft

TAF: EGTE 170625Z 1706/1715 19004KT 9999 FEW045

Observations et prévisions météorologiques de plus de 4000 aéroports (messages METAR et TAF).

Les stations disponibles sont représentées par des disques jaunes et rouges sur la carte.

Passer la souris dessus pour voir le nom de la station.

Cliquer dessus pour voir les observations et prévisions météorologiques.

Pour changer de carte: cliquez sur les boutons verts avec une croix noire pour zoomer, sur le bouton vert avec un tiret pour effectuer un zoom arrière, ou sur les flèches vertes pour les cartes adjacentes.


METAR-TAF: